Time;durP1;ratioP1;P1;durP2;ratioP2;P2;SDS_P1;SDS_P2;PMS_P1;PMS_P2;Temp;Humidity;BMP_temperature;BMP_pressure;BME280_temperature;BME280_humidity;BME280_pressure;Samples;Min_cycle;Max_cycle;Signal;HPM_P1;HPM_P2
2022/03/24 00:00:04;;;;;;;27.92;12.20;;;;;;;;;;4993243;28;20019;-59
2022/03/24 00:02:30;;;;;;;24.88;12.02;;;;;;;;;;5001406;28;20041;-59
2022/03/24 00:04:55;;;;;;;25.52;12.40;;;;;;;;;;5001654;28;20025;-59
2022/03/24 00:07:21;;;;;;;28.80;11.88;;;;;;;;;;5001214;28;20516;-58
2022/03/24 00:09:46;;;;;;;26.02;12.43;;;;;;;;;;4997876;28;20034;-59
2022/03/24 00:12:12;;;;;;;24.25;11.63;;;;;;;;;;4997935;28;20033;-59
2022/03/24 00:14:38;;;;;;;27.80;12.57;;;;;;;;;;4997176;28;20546;-59
2022/03/24 00:17:04;;;;;;;26.73;13.48;;;;;;;;;;4992935;28;20113;-59
2022/03/24 00:19:30;;;;;;;27.73;12.88;;;;;;;;;;4998312;28;20145;-59
2022/03/24 00:21:56;;;;;;;27.83;12.52;;;;;;;;;;4994475;28;20187;-58
2022/03/24 00:24:21;;;;;;;25.83;13.32;;;;;;;;;;4997019;28;20057;-59
2022/03/24 00:26:47;;;;;;;27.73;12.38;;;;;;;;;;4997449;28;20034;-59
2022/03/24 00:29:13;;;;;;;27.40;13.02;;;;;;;;;;4995144;28;20031;-58
2022/03/24 00:31:39;;;;;;;24.90;12.48;;;;;;;;;;4997118;28;20124;-59
2022/03/24 00:34:05;;;;;;;25.27;11.95;;;;;;;;;;4995308;28;20113;-59
2022/03/24 00:36:31;;;;;;;27.17;12.35;;;;;;;;;;4997773;28;20110;-59
2022/03/24 00:38:56;;;;;;;29.67;14.38;;;;;;;;;;4988016;28;20050;-59
2022/03/24 00:41:23;;;;;;;27.23;13.02;;;;;;;;;;4991627;28;20506;-59
2022/03/24 00:43:49;;;;;;;27.77;13.02;;;;;;;;;;4994629;28;20113;-58
2022/03/24 00:46:21;;;;;;;26.73;12.95;;;;;;;;;;4995299;28;20037;-59
2022/03/24 00:48:48;;;;;;;25.60;12.57;;;;;;;;;;4993014;28;20028;-59
2022/03/24 00:51:15;;;;;;;26.45;12.63;;;;;;;;;;4993939;28;20475;-59
2022/03/24 00:53:41;;;;;;;27.02;13.57;;;;;;;;;;4999500;28;20084;-59
2022/03/24 00:56:06;;;;;;;29.98;13.43;;;;;;;;;;5006733;28;20059;-60
2022/03/24 00:58:32;;;;;;;28.35;13.48;;;;;;;;;;4990739;28;20038;-59
2022/03/24 01:00:57;;;;;;;32.33;13.75;;;;;;;;;;4995248;28;20050;-60
2022/03/24 01:03:23;;;;;;;36.22;14.13;;;;;;;;;;4992188;28;20436;-58
2022/03/24 01:05:48;;;;;;;27.83;12.85;;;;;;;;;;4993330;28;20034;-58
2022/03/24 01:08:16;;;;;;;29.75;13.32;;;;;;;;;;4999333;28;20456;-58
2022/03/24 01:10:42;;;;;;;27.15;13.10;;;;;;;;;;4994944;28;20730;-58
2022/03/24 01:13:08;;;;;;;29.92;14.32;;;;;;;;;;4989530;28;20018;-58
2022/03/24 01:15:34;;;;;;;29.30;13.75;;;;;;;;;;4988067;28;20496;-59
2022/03/24 01:18:00;;;;;;;31.80;14.07;;;;;;;;;;4989339;28;20022;-58
2022/03/24 01:20:28;;;;;;;29.63;13.18;;;;;;;;;;4993705;28;20030;-57
2022/03/24 01:22:53;;;;;;;28.65;13.68;;;;;;;;;;4995197;28;20033;-58
2022/03/24 01:25:19;;;;;;;32.75;14.35;;;;;;;;;;4993492;28;20378;-58
2022/03/24 01:27:44;;;;;;;34.38;14.18;;;;;;;;;;4989813;28;20038;-58
2022/03/24 01:30:10;;;;;;;31.70;14.85;;;;;;;;;;4986367;28;20499;-58
2022/03/24 01:32:36;;;;;;;32.15;14.02;;;;;;;;;;4992328;28;20030;-59
2022/03/24 01:35:07;;;;;;;32.13;14.00;;;;;;;;;;4990646;28;20483;-59
2022/03/24 01:37:34;;;;;;;26.23;13.18;;;;;;;;;;4995788;28;20396;-58
2022/03/24 01:39:59;;;;;;;30.58;14.25;;;;;;;;;;4992194;28;20045;-58
2022/03/24 01:42:26;;;;;;;31.33;13.85;;;;;;;;;;5000165;28;20068;-58
2022/03/24 01:44:55;;;;;;;30.23;14.13;;;;;;;;;;4998150;28;20113;-58
2022/03/24 01:47:22;;;;;;;30.02;13.80;;;;;;;;;;4993767;28;20093;-58
2022/03/24 01:49:48;;;;;;;32.28;14.60;;;;;;;;;;4994168;28;20028;-58
2022/03/24 01:52:14;;;;;;;29.38;13.63;;;;;;;;;;4997711;28;20030;-58
2022/03/24 01:54:48;;;;;;;28.63;14.15;;;;;;;;;;5002334;28;20391;-58
2022/03/24 01:57:16;;;;;;;32.78;14.90;;;;;;;;;;4997794;28;20092;-59
2022/03/24 01:59:42;;;;;;;31.42;14.50;;;;;;;;;;5001620;28;20438;-59
2022/03/24 02:02:10;;;;;;;32.10;14.70;;;;;;;;;;5000784;28;20030;-59
2022/03/24 02:04:36;;;;;;;35.75;15.02;;;;;;;;;;5003737;28;20053;-59
2022/03/24 02:07:05;;;;;;;31.35;14.07;;;;;;;;;;5002643;28;20143;-59
2022/03/24 02:09:32;;;;;;;30.52;14.10;;;;;;;;;;4997229;28;20032;-59
2022/03/24 02:11:58;;;;;;;28.83;13.98;;;;;;;;;;4998806;28;20033;-58
2022/03/24 02:14:23;;;;;;;32.85;14.77;;;;;;;;;;4994067;28;20040;-59
2022/03/24 02:16:49;;;;;;;31.33;15.40;;;;;;;;;;4995038;28;20181;-58
2022/03/24 02:19:17;;;;;;;31.83;15.00;;;;;;;;;;4991303;28;20034;-58
2022/03/24 02:21:44;;;;;;;33.15;14.80;;;;;;;;;;5001540;28;20041;-58
2022/03/24 02:24:12;;;;;;;28.88;14.40;;;;;;;;;;5002580;28;20536;-58
2022/03/24 02:26:41;;;;;;;35.03;14.25;;;;;;;;;;5005401;28;20030;-58
2022/03/24 02:29:07;;;;;;;29.33;13.97;;;;;;;;;;4994354;28;20037;-58
2022/03/24 02:31:53;;;;;;;33.65;15.43;;;;;;;;;;4993087;28;20034;-58
2022/03/24 02:34:40;;;;;;;28.88;13.75;;;;;;;;;;5000101;28;20074;-59
2022/03/24 02:37:08;;;;;;;30.27;14.38;;;;;;;;;;4993874;28;20029;-58
2022/03/24 02:39:35;;;;;;;27.80;14.02;;;;;;;;;;4996965;28;20586;-58
2022/03/24 02:42:01;;;;;;;30.50;14.65;;;;;;;;;;4997171;28;20117;-58
2022/03/24 02:44:30;;;;;;;29.63;13.88;;;;;;;;;;4995443;28;20598;-58
2022/03/24 02:46:57;;;;;;;30.57;14.07;;;;;;;;;;4997721;28;20030;-58
2022/03/24 02:49:27;;;;;;;30.00;13.73;;;;;;;;;;4991226;28;20384;-58
2022/03/24 02:51:54;;;;;;;30.40;13.30;;;;;;;;;;5000136;28;20029;-58
2022/03/24 02:54:20;;;;;;;35.70;14.80;;;;;;;;;;5001684;28;20121;-59
2022/03/24 02:56:47;;;;;;;30.38;14.90;;;;;;;;;;5001928;28;20625;-58
2022/03/24 02:59:12;;;;;;;32.67;13.98;;;;;;;;;;4999668;28;20099;-58
2022/03/24 03:01:45;;;;;;;28.85;14.00;;;;;;;;;;5005414;28;20517;-58
2022/03/24 03:04:12;;;;;;;33.33;13.30;;;;;;;;;;4993393;28;20086;-58
2022/03/24 03:06:38;;;;;;;27.75;13.05;;;;;;;;;;5003772;28;20523;-59
2022/03/24 03:09:04;;;;;;;30.30;13.27;;;;;;;;;;4992563;28;20027;-58
2022/03/24 03:11:30;;;;;;;31.15;13.57;;;;;;;;;;4996153;28;20472;-58
2022/03/24 03:13:56;;;;;;;31.83;14.13;;;;;;;;;;5001532;28;20040;-59
2022/03/24 03:16:22;;;;;;;32.92;14.00;;;;;;;;;;4998625;28;20076;-57
2022/03/24 03:18:47;;;;;;;35.95;15.82;;;;;;;;;;4992345;28;20065;-58
2022/03/24 03:21:13;;;;;;;32.40;13.73;;;;;;;;;;4990588;28;20527;-58
2022/03/24 03:23:39;;;;;;;32.58;13.90;;;;;;;;;;4997211;28;20034;-58
2022/03/24 03:26:08;;;;;;;29.90;14.52;;;;;;;;;;4993521;28;20042;-58
2022/03/24 03:28:34;;;;;;;33.55;14.38;;;;;;;;;;4994992;28;20109;-58
2022/03/24 03:31:01;;;;;;;33.08;14.75;;;;;;;;;;4995175;28;20026;-58
2022/03/24 03:33:26;;;;;;;30.40;13.32;;;;;;;;;;5003911;28;20030;-58
2022/03/24 03:35:52;;;;;;;30.17;13.98;;;;;;;;;;4993073;28;20029;-58
2022/03/24 03:38:18;;;;;;;31.58;14.00;;;;;;;;;;4992362;28;20018;-58
2022/03/24 03:40:47;;;;;;;32.05;14.27;;;;;;;;;;4997707;28;20045;-58
2022/03/24 03:43:14;;;;;;;30.50;13.75;;;;;;;;;;4993400;28;20046;-57
2022/03/24 03:45:42;;;;;;;30.67;13.35;;;;;;;;;;4992583;28;20125;-57
2022/03/24 03:48:09;;;;;;;32.90;14.65;;;;;;;;;;4990596;28;20030;-58
2022/03/24 03:50:36;;;;;;;30.33;13.88;;;;;;;;;;4992869;28;20026;-58
2022/03/24 03:53:01;;;;;;;33.28;15.10;;;;;;;;;;4992508;28;20473;-58
2022/03/24 03:55:27;;;;;;;33.78;14.57;;;;;;;;;;4996360;28;20109;-58
2022/03/24 03:57:54;;;;;;;32.78;14.02;;;;;;;;;;4997246;28;20120;-58
2022/03/24 04:03:04;;;;;;;30.55;13.55;;;;;;;;;;4994166;28;20081;-58
2022/03/24 04:05:33;;;;;;;32.08;13.77;;;;;;;;;;4992779;28;20467;-58
2022/03/24 04:07:59;;;;;;;37.00;14.73;;;;;;;;;;4992568;28;20579;-59
2022/03/24 04:10:27;;;;;;;31.80;14.10;;;;;;;;;;5001181;28;20269;-59
2022/03/24 04:12:53;;;;;;;34.08;14.55;;;;;;;;;;4992629;28;20156;-59
2022/03/24 04:15:18;;;;;;;32.67;13.63;;;;;;;;;;4994311;28;20321;-59
2022/03/24 04:17:44;;;;;;;29.15;13.50;;;;;;;;;;4991577;28;20485;-58
2022/03/24 04:20:10;;;;;;;33.40;13.93;;;;;;;;;;4989777;28;20476;-59
2022/03/24 04:22:36;;;;;;;33.70;14.65;;;;;;;;;;4996584;28;20091;-59
2022/03/24 04:25:02;;;;;;;32.72;13.98;;;;;;;;;;4994490;28;20453;-58
2022/03/24 04:27:28;;;;;;;31.25;13.70;;;;;;;;;;4993875;28;20042;-58
2022/03/24 04:29:53;;;;;;;32.97;14.48;;;;;;;;;;4991736;28;20026;-58
2022/03/24 04:32:19;;;;;;;34.15;13.10;;;;;;;;;;4989190;28;20057;-58
2022/03/24 04:34:45;;;;;;;31.08;12.80;;;;;;;;;;4992278;28;20409;-58
2022/03/24 04:37:11;;;;;;;31.30;15.10;;;;;;;;;;4993091;28;20395;-59
2022/03/24 04:39:36;;;;;;;28.73;14.07;;;;;;;;;;4997616;28;20110;-58
2022/03/24 04:42:02;;;;;;;35.25;14.52;;;;;;;;;;4993290;28;20395;-59
2022/03/24 04:44:27;;;;;;;28.55;13.57;;;;;;;;;;4994297;28;20034;-58
2022/03/24 04:46:53;;;;;;;30.50;14.07;;;;;;;;;;5001391;28;20026;-58
2022/03/24 04:49:18;;;;;;;31.45;14.02;;;;;;;;;;4996187;28;20117;-59
2022/03/24 04:51:44;;;;;;;32.25;13.32;;;;;;;;;;5003728;28;20104;-58
2022/03/24 04:54:10;;;;;;;31.67;15.10;;;;;;;;;;4999820;28;20033;-58
2022/03/24 04:56:35;;;;;;;37.33;16.25;;;;;;;;;;5008577;28;20492;-58
2022/03/24 04:59:01;;;;;;;35.95;15.25;;;;;;;;;;4995677;28;20030;-58
2022/03/24 05:01:26;;;;;;;29.83;15.13;;;;;;;;;;5002412;28;20026;-58
2022/03/24 05:03:52;;;;;;;32.00;14.20;;;;;;;;;;4998987;28;20038;-58
2022/03/24 05:06:18;;;;;;;35.35;14.93;;;;;;;;;;4996763;28;20054;-58
2022/03/24 05:08:43;;;;;;;34.60;13.48;;;;;;;;;;5007748;28;20030;-57
2022/03/24 05:11:09;;;;;;;33.78;14.00;;;;;;;;;;4998563;28;20026;-57
2022/03/24 05:13:34;;;;;;;32.58;14.75;;;;;;;;;;4999255;28;20029;-58
2022/03/24 05:15:59;;;;;;;41.80;16.23;;;;;;;;;;5002061;28;20087;-60
2022/03/24 05:18:25;;;;;;;33.55;15.32;;;;;;;;;;4998677;28;20025;-58
2022/03/24 05:20:51;;;;;;;35.28;15.80;;;;;;;;;;5003512;28;20157;-58
2022/03/24 05:23:16;;;;;;;31.92;14.68;;;;;;;;;;5003901;28;20040;-57
2022/03/24 05:25:44;;;;;;;33.30;15.88;;;;;;;;;;5003726;28;20034;-59
2022/03/24 05:28:10;;;;;;;30.90;14.95;;;;;;;;;;5003534;28;20484;-59
2022/03/24 05:30:36;;;;;;;33.90;14.98;;;;;;;;;;5004121;28;20101;-59
2022/03/24 05:33:02;;;;;;;30.42;14.32;;;;;;;;;;4999901;28;20480;-58
2022/03/24 05:35:29;;;;;;;32.83;13.82;;;;;;;;;;4995819;28;20052;-58
2022/03/24 05:37:55;;;;;;;38.00;14.48;;;;;;;;;;4997961;28;20184;-58
2022/03/24 05:40:21;;;;;;;39.58;15.85;;;;;;;;;;5004585;28;20025;-58
2022/03/24 05:42:46;;;;;;;36.22;14.38;;;;;;;;;;5008085;28;20025;-58
2022/03/24 05:45:12;;;;;;;31.05;13.52;;;;;;;;;;5011385;28;20038;-58
2022/03/24 05:47:38;;;;;;;36.63;15.35;;;;;;;;;;5001429;28;20026;-58
2022/03/24 05:50:04;;;;;;;35.10;15.40;;;;;;;;;;5004067;28;20057;-58
2022/03/24 05:52:29;;;;;;;32.92;14.35;;;;;;;;;;5003435;28;20540;-59
2022/03/24 05:54:55;;;;;;;31.98;13.70;;;;;;;;;;5006638;28;20036;-59
2022/03/24 05:57:20;;;;;;;33.00;13.85;;;;;;;;;;5006512;28;20025;-59
2022/03/24 05:59:46;;;;;;;34.53;14.00;;;;;;;;;;5008135;28;20018;-58
2022/03/24 06:02:13;;;;;;;37.00;15.73;;;;;;;;;;5002262;28;20550;-59
2022/03/24 06:04:42;;;;;;;34.17;14.73;;;;;;;;;;5003121;28;20040;-60
2022/03/24 06:07:09;;;;;;;33.67;15.70;;;;;;;;;;4997138;28;20022;-58
2022/03/24 06:09:35;;;;;;;36.33;15.93;;;;;;;;;;5001743;28;20541;-58
2022/03/24 06:12:01;;;;;;;39.83;16.02;;;;;;;;;;4998025;28;20034;-58
2022/03/24 06:14:27;;;;;;;36.50;15.60;;;;;;;;;;4995196;28;20105;-58
2022/03/24 06:16:53;;;;;;;31.50;14.23;;;;;;;;;;5006308;28;20113;-58
2022/03/24 06:19:18;;;;;;;34.70;15.88;;;;;;;;;;5000548;28;20117;-58
2022/03/24 06:21:44;;;;;;;37.55;16.27;;;;;;;;;;5003612;28;20045;-59
2022/03/24 06:24:11;;;;;;;35.15;15.15;;;;;;;;;;5002620;28;20026;-58
2022/03/24 06:26:37;;;;;;;33.15;15.93;;;;;;;;;;5003505;28;20079;-58
2022/03/24 06:29:03;;;;;;;34.58;15.95;;;;;;;;;;4998190;28;20142;-58
2022/03/24 06:31:30;;;;;;;33.65;14.63;;;;;;;;;;4999914;28;20030;-59
2022/03/24 06:33:56;;;;;;;35.70;14.70;;;;;;;;;;5003813;28;20501;-59
2022/03/24 06:36:22;;;;;;;30.98;14.98;;;;;;;;;;5004169;28;20395;-59
2022/03/24 06:38:47;;;;;;;35.17;15.82;;;;;;;;;;5007739;28;20025;-58
2022/03/24 06:41:14;;;;;;;43.03;16.67;;;;;;;;;;5004808;28;20029;-59
2022/03/24 06:43:41;;;;;;;35.08;16.48;;;;;;;;;;5006074;28;20381;-58
2022/03/24 06:46:06;;;;;;;39.53;16.17;;;;;;;;;;5002842;28;20029;-58
2022/03/24 06:48:32;;;;;;;33.47;15.57;;;;;;;;;;5005854;28;20069;-59
2022/03/24 06:50:58;;;;;;;41.25;16.98;;;;;;;;;;5001562;28;20400;-58
2022/03/24 06:53:23;;;;;;;32.53;15.68;;;;;;;;;;5006369;28;20028;-58
2022/03/24 06:55:49;;;;;;;36.30;16.67;;;;;;;;;;5004133;28;20075;-59
2022/03/24 06:58:14;;;;;;;31.35;14.50;;;;;;;;;;5002182;28;20033;-58
2022/03/24 07:00:40;;;;;;;37.28;17.27;;;;;;;;;;5002797;28;20018;-60
2022/03/24 07:03:05;;;;;;;37.00;16.83;;;;;;;;;;5000810;28;20022;-58
2022/03/24 07:05:31;;;;;;;37.72;16.60;;;;;;;;;;5003688;28;20558;-58
2022/03/24 07:07:57;;;;;;;37.97;17.88;;;;;;;;;;4999038;28;20072;-58
2022/03/24 07:10:22;;;;;;;44.38;18.92;;;;;;;;;;5000510;28;20030;-58
2022/03/24 07:12:49;;;;;;;39.33;17.92;;;;;;;;;;4999706;28;20480;-58
2022/03/24 07:15:15;;;;;;;40.08;18.48;;;;;;;;;;5001208;28;20134;-58
2022/03/24 07:17:41;;;;;;;40.38;17.50;;;;;;;;;;5001957;28;20487;-58
2022/03/24 07:20:08;;;;;;;37.25;17.88;;;;;;;;;;5000421;28;20476;-59
2022/03/24 07:22:34;;;;;;;40.90;18.05;;;;;;;;;;4999018;28;20028;-58
2022/03/24 07:25:00;;;;;;;39.97;17.48;;;;;;;;;;5008995;28;20038;-58
2022/03/24 07:27:26;;;;;;;37.38;17.33;;;;;;;;;;5013255;28;20028;-58
2022/03/24 07:29:52;;;;;;;37.20;18.27;;;;;;;;;;4998147;28;20069;-58
2022/03/24 07:32:17;;;;;;;38.63;17.67;;;;;;;;;;5004893;28;20369;-58
2022/03/24 07:34:42;;;;;;;40.22;18.75;;;;;;;;;;5001504;28;20041;-59
2022/03/24 07:37:08;;;;;;;43.70;18.55;;;;;;;;;;5004979;28;20088;-58
2022/03/24 07:39:33;;;;;;;37.25;18.35;;;;;;;;;;5006482;28;20048;-59
2022/03/24 07:41:59;;;;;;;37.00;17.90;;;;;;;;;;5008852;28;20104;-59
2022/03/24 07:44:25;;;;;;;38.10;18.00;;;;;;;;;;5005946;28;20075;-58
2022/03/24 07:46:51;;;;;;;37.35;16.60;;;;;;;;;;5006515;28;20021;-58
2022/03/24 07:49:16;;;;;;;40.13;18.52;;;;;;;;;;5005629;28;20024;-58
2022/03/24 07:51:42;;;;;;;45.30;18.77;;;;;;;;;;5000362;28;20026;-59
2022/03/24 07:54:09;;;;;;;42.22;19.63;;;;;;;;;;4999795;28;20129;-58
2022/03/24 07:56:35;;;;;;;41.45;17.90;;;;;;;;;;4997318;28;20084;-59
2022/03/24 07:59:01;;;;;;;39.55;16.60;;;;;;;;;;4992829;28;20026;-59
2022/03/24 08:01:36;;;;;;;37.38;17.17;;;;;;;;;;5001032;28;20056;-59
2022/03/24 08:04:05;;;;;;;35.83;17.52;;;;;;;;;;5003820;28;20061;-59
2022/03/24 08:06:31;;;;;;;37.27;16.90;;;;;;;;;;5002277;28;20488;-59
2022/03/24 08:08:58;;;;;;;38.90;17.35;;;;;;;;;;5004920;28;20268;-59
2022/03/24 08:11:25;;;;;;;35.88;16.67;;;;;;;;;;5002894;28;20164;-59
2022/03/24 08:13:53;;;;;;;38.10;16.55;;;;;;;;;;5005341;28;20017;-59
2022/03/24 08:16:26;;;;;;;35.35;17.13;;;;;;;;;;5015123;28;20475;-60
2022/03/24 08:18:53;;;;;;;38.80;18.17;;;;;;;;;;4999016;28;20549;-59
2022/03/24 08:21:19;;;;;;;34.80;16.50;;;;;;;;;;4999302;28;20476;-59
2022/03/24 08:23:45;;;;;;;40.67;18.65;;;;;;;;;;4999722;28;20033;-58
2022/03/24 08:26:10;;;;;;;47.10;18.50;;;;;;;;;;5007995;28;20033;-60
2022/03/24 08:28:36;;;;;;;38.40;17.95;;;;;;;;;;4998381;28;20488;-59
2022/03/24 08:31:02;;;;;;;37.58;18.63;;;;;;;;;;4996972;28;20026;-60
2022/03/24 08:33:28;;;;;;;42.63;18.42;;;;;;;;;;4998212;28;20101;-60
2022/03/24 08:35:55;;;;;;;41.42;18.17;;;;;;;;;;5007624;28;20034;-59
2022/03/24 08:38:21;;;;;;;40.90;17.98;;;;;;;;;;5007262;28;20026;-59
2022/03/24 08:40:47;;;;;;;39.40;18.20;;;;;;;;;;5006463;28;20041;-59
2022/03/24 08:43:13;;;;;;;38.53;17.88;;;;;;;;;;5007480;28;20038;-60
2022/03/24 08:45:39;;;;;;;39.13;18.42;;;;;;;;;;5006718;28;20021;-58
2022/03/24 08:48:06;;;;;;;39.72;19.08;;;;;;;;;;5004414;28;20030;-58
2022/03/24 08:50:32;;;;;;;43.20;18.90;;;;;;;;;;5001902;28;20026;-59
2022/03/24 08:52:58;;;;;;;41.35;19.27;;;;;;;;;;5010149;28;20551;-59
2022/03/24 08:55:23;;;;;;;39.67;19.20;;;;;;;;;;5009126;28;20121;-58
2022/03/24 08:57:49;;;;;;;40.95;19.17;;;;;;;;;;5008893;28;20279;-59
2022/03/24 09:00:17;;;;;;;40.65;20.00;;;;;;;;;;5005630;28;20021;-59
2022/03/24 09:02:48;;;;;;;39.67;19.55;;;;;;;;;;5007130;28;20443;-60
2022/03/24 09:05:15;;;;;;;37.03;18.38;;;;;;;;;;5014164;28;20022;-59
2022/03/24 09:07:41;;;;;;;48.45;20.52;;;;;;;;;;5007050;28;20018;-60
2022/03/24 09:10:09;;;;;;;39.25;19.38;;;;;;;;;;5001328;28;20447;-59
2022/03/24 09:12:40;;;;;;;43.72;19.75;;;;;;;;;;5007662;28;20529;-60
2022/03/24 09:15:07;;;;;;;42.28;19.52;;;;;;;;;;5006870;28;20105;-60
2022/03/24 09:17:35;;;;;;;46.00;21.40;;;;;;;;;;5008746;28;20053;-60
2022/03/24 09:20:01;;;;;;;44.70;21.42;;;;;;;;;;5001039;28;20046;-60
2022/03/24 09:22:26;;;;;;;47.42;21.27;;;;;;;;;;5008002;28;20064;-60
2022/03/24 09:24:52;;;;;;;47.47;22.38;;;;;;;;;;5006115;28;20036;-59
2022/03/24 09:27:17;;;;;;;45.65;20.85;;;;;;;;;;5007450;28;20124;-59
2022/03/24 09:29:43;;;;;;;46.03;21.95;;;;;;;;;;5002244;28;20033;-59
2022/03/24 09:32:12;;;;;;;47.20;21.67;;;;;;;;;;5005896;28;20056;-59
2022/03/24 09:34:39;;;;;;;50.88;23.67;;;;;;;;;;5008125;28;20032;-59
2022/03/24 09:37:04;;;;;;;49.72;22.83;;;;;;;;;;5011447;28;20030;-59
2022/03/24 09:39:30;;;;;;;53.53;24.92;;;;;;;;;;5008355;28;20075;-60
2022/03/24 09:41:57;;;;;;;49.35;23.60;;;;;;;;;;4999820;28;20030;-59
2022/03/24 09:44:24;;;;;;;47.15;22.45;;;;;;;;;;5007022;28;20034;-60
2022/03/24 09:46:49;;;;;;;51.75;22.95;;;;;;;;;;5004368;28;20041;-59
2022/03/24 09:49:15;;;;;;;45.83;22.73;;;;;;;;;;5005031;28;20103;-59
2022/03/24 09:51:42;;;;;;;50.20;23.05;;;;;;;;;;5004470;28;20030;-60
2022/03/24 09:54:10;;;;;;;48.17;23.90;;;;;;;;;;5004511;28;20042;-61
2022/03/24 09:56:35;;;;;;;45.88;22.40;;;;;;;;;;4997870;28;20088;-60
2022/03/24 09:59:02;;;;;;;51.33;24.42;;;;;;;;;;5001474;28;20292;-60
2022/03/24 10:01:27;;;;;;;32.05;16.35;;;;;;;;;;5001416;28;20014;-60
2022/03/24 10:04:08;;;;;;;44.92;22.75;;;;;;;;;;4999629;28;20025;-61
2022/03/24 10:06:36;;;;;;;47.95;23.00;;;;;;;;;;5004974;28;20054;-60
2022/03/24 10:09:01;;;;;;;44.58;23.30;;;;;;;;;;4999352;28;20030;-60
2022/03/24 10:11:27;;;;;;;48.20;23.52;;;;;;;;;;5002574;28;20376;-62
2022/03/24 10:13:58;;;;;;;45.85;23.30;;;;;;;;;;5005487;28;20049;-61
2022/03/24 10:16:33;;;;;;;46.25;23.15;;;;;;;;;;5005587;28;20033;-60
2022/03/24 10:19:09;;;;;;;61.10;24.38;;;;;;;;;;5006645;28;20034;-58
2022/03/24 10:21:37;;;;;;;39.35;19.50;;;;;;;;;;5007969;28;20036;-57
2022/03/24 10:24:12;;;;;;;36.70;18.05;;;;;;;;;;5000062;28;20030;-59
2022/03/24 10:26:46;;;;;;;45.45;23.20;;;;;;;;;;5001321;28;20097;-58
2022/03/24 10:29:20;;;;;;;79.63;38.40;;;;;;;;;;4998412;28;20101;-59
2022/03/24 10:31:51;;;;;;;49.63;24.73;;;;;;;;;;5004072;28;20105;-58
2022/03/24 10:34:36;;;;;;;48.33;23.95;;;;;;;;;;5010266;28;20025;-58
2022/03/24 10:37:07;;;;;;;47.35;23.70;;;;;;;;;;5002632;28;20054;-59
2022/03/24 10:39:37;;;;;;;44.17;22.88;;;;;;;;;;5006040;28;20476;-58
2022/03/24 10:42:14;;;;;;;46.22;23.45;;;;;;;;;;5005886;28;20127;-59
2022/03/24 10:45:08;;;;;;;41.63;22.45;;;;;;;;;;5008969;28;20545;-57
2022/03/24 10:47:44;;;;;;;45.13;23.58;;;;;;;;;;5006046;28;20062;-58
2022/03/24 10:50:29;;;;;;;42.92;22.42;;;;;;;;;;5003708;28;20123;-58
2022/03/24 10:53:02;;;;;;;42.47;22.35;;;;;;;;;;4997468;28;20029;-60
2022/03/24 10:55:36;;;;;;;45.90;23.92;;;;;;;;;;4996945;28;20308;-56
2022/03/24 10:58:08;;;;;;;40.53;21.77;;;;;;;;;;4994345;28;20546;-57
2022/03/24 11:00:34;;;;;;;50.20;24.42;;;;;;;;;;5005435;28;20023;-57
2022/03/24 11:03:00;;;;;;;47.35;24.52;;;;;;;;;;5000817;28;20201;-57
2022/03/24 11:05:26;;;;;;;47.97;24.48;;;;;;;;;;4997446;28;20544;-59
2022/03/24 11:07:53;;;;;;;38.33;21.00;;;;;;;;;;4999916;28;20121;-58
2022/03/24 11:10:19;;;;;;;42.53;23.38;;;;;;;;;;5000097;28;20026;-58
2022/03/24 11:12:45;;;;;;;40.22;21.35;;;;;;;;;;5001860;28;20038;-57
2022/03/24 11:15:10;;;;;;;39.38;22.73;;;;;;;;;;4999434;28;20133;-59
2022/03/24 11:17:39;;;;;;;38.92;20.73;;;;;;;;;;5000243;28;20029;-57
2022/03/24 11:20:07;;;;;;;42.60;24.77;;;;;;;;;;4993016;28;20104;-57
2022/03/24 11:22:42;;;;;;;45.53;24.90;;;;;;;;;;4999392;28;20061;-58
2022/03/24 11:25:08;;;;;;;43.65;24.55;;;;;;;;;;4998643;28;20033;-58
2022/03/24 11:27:33;;;;;;;52.78;33.42;;;;;;;;;;4999819;28;20022;-58
2022/03/24 11:30:03;;;;;;;252.18;197.18;;;;;;;;;;5000893;28;20029;-58
2022/03/24 11:32:28;;;;;;;;;;;;;;;;;;5000410;28;20036;-58
2022/03/24 11:34:54;;;;;;;154.45;92.28;;;;;;;;;;5004815;28;19913;-58
2022/03/24 11:37:20;;;;;;;90.22;53.72;;;;;;;;;;5005525;28;20194;-59
2022/03/24 11:40:23;;;;;;;53.63;31.48;;;;;;;;;;5000875;28;20180;-58
2022/03/24 11:42:54;;;;;;;52.67;30.27;;;;;;;;;;5002898;28;20491;-59
2022/03/24 11:45:32;;;;;;;50.78;25.55;;;;;;;;;;5000588;28;20091;-58
2022/03/24 11:48:05;;;;;;;41.80;24.65;;;;;;;;;;5000362;28;20057;-58
2022/03/24 11:50:45;;;;;;;45.67;24.40;;;;;;;;;;4999925;28;20046;-58
2022/03/24 11:53:13;;;;;;;42.70;27.20;;;;;;;;;;5001399;28;20026;-58
2022/03/24 11:55:43;;;;;;;97.85;82.20;;;;;;;;;;5008415;28;20034;-59
2022/03/24 11:58:09;;;;;;;114.65;86.97;;;;;;;;;;4999827;28;20018;-59
2022/03/24 12:00:36;;;;;;;65.05;45.33;;;;;;;;;;4997626;28;20037;-58
2022/03/24 12:03:02;;;;;;;39.85;26.52;;;;;;;;;;4999751;28;20502;-58
2022/03/24 12:05:47;;;;;;;105.07;87.05;;;;;;;;;;4996760;28;20030;-58
2022/03/24 12:08:12;;;;;;;72.80;51.08;;;;;;;;;;5006716;28;20369;-58
2022/03/24 12:10:38;;;;;;;56.97;39.83;;;;;;;;;;5001072;28;20033;-59
2022/03/24 12:13:15;;;;;;;51.65;34.22;;;;;;;;;;4994439;28;20021;-58
2022/03/24 12:15:41;;;;;;;47.70;30.88;;;;;;;;;;5007287;28;20101;-58
2022/03/24 12:18:18;;;;;;;43.75;28.05;;;;;;;;;;5006637;28;20383;-58
2022/03/24 12:20:47;;;;;;;44.08;26.90;;;;;;;;;;5004194;28;20484;-58
2022/03/24 12:23:13;;;;;;;41.10;24.88;;;;;;;;;;5001690;28;20411;-58
2022/03/24 12:25:39;;;;;;;40.30;23.38;;;;;;;;;;5000218;28;20480;-58
2022/03/24 12:28:15;;;;;;;39.30;23.23;;;;;;;;;;4998736;28;20045;-58
2022/03/24 12:30:51;;;;;;;34.42;21.65;;;;;;;;;;5000435;28;20083;-58
2022/03/24 12:33:32;;;;;;;36.70;22.70;;;;;;;;;;5000681;28;20192;-59
2022/03/24 12:36:00;;;;;;;39.13;23.20;;;;;;;;;;4996392;28;20076;-59
2022/03/24 12:38:35;;;;;;;34.33;21.73;;;;;;;;;;5002135;28;20058;-58
2022/03/24 12:41:06;;;;;;;36.67;21.88;;;;;;;;;;4995433;28;20029;-58
2022/03/24 12:43:38;;;;;;;37.03;23.40;;;;;;;;;;4998678;28;20033;-59
2022/03/24 12:46:37;;;;;;;38.72;24.30;;;;;;;;;;5002076;28;20037;-58
2022/03/24 12:49:11;;;;;;;;;;;;;;;;;;5006660;28;20022;-58
2022/03/24 12:51:52;;;;;;;39.25;21.58;;;;;;;;;;5002756;28;19917;-58
2022/03/24 12:54:22;;;;;;;29.80;19.60;;;;;;;;;;4994344;28;20109;-59
2022/03/24 12:56:47;;;;;;;28.77;18.90;;;;;;;;;;5003556;28;20084;-59
2022/03/24 12:59:13;;;;;;;39.15;23.48;;;;;;;;;;4992103;28;20025;-61
2022/03/24 13:01:39;;;;;;;35.75;22.67;;;;;;;;;;5001226;28;20123;-61
2022/03/24 13:04:07;;;;;;;37.33;21.95;;;;;;;;;;4996758;28;20026;-61
2022/03/24 13:06:39;;;;;;;33.42;21.85;;;;;;;;;;4995788;28;20040;-60
2022/03/24 13:09:13;;;;;;;36.90;23.55;;;;;;;;;;5001503;28;20113;-60
2022/03/24 13:11:49;;;;;;;34.78;22.30;;;;;;;;;;4999973;28;20489;-61
2022/03/24 13:14:17;;;;;;;38.20;25.08;;;;;;;;;;5007862;28;20033;-61
2022/03/24 13:16:43;;;;;;;35.63;23.02;;;;;;;;;;5020687;28;20049;-61
2022/03/24 13:19:09;;;;;;;34.47;23.15;;;;;;;;;;4999053;28;20887;-61
2022/03/24 13:21:34;;;;;;;35.45;22.55;;;;;;;;;;4996179;28;20030;-61
2022/03/24 13:23:59;;;;;;;42.65;23.80;;;;;;;;;;4997634;28;20026;-61
2022/03/24 13:26:25;;;;;;;39.17;23.63;;;;;;;;;;4994658;28;20133;-61
2022/03/24 13:28:56;;;;;;;36.10;23.70;;;;;;;;;;4998822;28;20059;-60
2022/03/24 13:31:29;;;;;;;40.30;23.60;;;;;;;;;;4996819;28;20038;-61
2022/03/24 13:33:54;;;;;;;36.25;23.77;;;;;;;;;;4996652;28;20030;-60
2022/03/24 13:36:20;;;;;;;40.50;24.38;;;;;;;;;;4994630;28;20113;-60
2022/03/24 13:38:46;;;;;;;36.78;23.65;;;;;;;;;;5002587;28;20029;-60
2022/03/24 13:41:12;;;;;;;36.33;23.88;;;;;;;;;;5001700;28;20026;-59
2022/03/24 13:43:37;;;;;;;33.33;21.55;;;;;;;;;;5006348;28;20037;-59
2022/03/24 13:46:03;;;;;;;34.85;21.98;;;;;;;;;;5004979;28;20384;-59
2022/03/24 13:48:28;;;;;;;33.58;20.02;;;;;;;;;;5003417;28;20508;-58
2022/03/24 13:51:00;;;;;;;38.03;22.02;;;;;;;;;;5003623;28;20030;-59
2022/03/24 13:53:28;;;;;;;36.40;24.15;;;;;;;;;;5003687;28;20440;-59
2022/03/24 13:56:10;;;;;;;35.00;21.00;;;;;;;;;;5006555;28;20103;-60
2022/03/24 13:58:39;;;;;;;38.38;22.63;;;;;;;;;;5003596;28;20040;-58
2022/03/24 14:01:11;;;;;;;33.45;21.77;;;;;;;;;;5005629;28;20137;-60
2022/03/24 14:03:41;;;;;;;35.67;22.10;;;;;;;;;;5005860;28;20029;-59
2022/03/24 14:06:14;;;;;;;36.22;22.13;;;;;;;;;;5007629;28;20032;-58
2022/03/24 14:08:50;;;;;;;36.88;22.70;;;;;;;;;;5008410;28;20105;-58
2022/03/24 14:11:27;;;;;;;34.28;21.27;;;;;;;;;;5010363;28;20507;-59
2022/03/24 14:13:54;;;;;;;36.90;22.45;;;;;;;;;;5003981;28;20045;-59
2022/03/24 14:16:31;;;;;;;34.97;21.15;;;;;;;;;;5000800;28;20029;-59
2022/03/24 14:19:18;;;;;;;35.95;23.10;;;;;;;;;;5002124;28;20089;-60
2022/03/24 14:21:49;;;;;;;38.33;22.80;;;;;;;;;;5002847;28;20040;-60
2022/03/24 14:24:37;;;;;;;35.03;22.08;;;;;;;;;;4999831;28;20160;-60